Time;durP1;ratioP1;P1;durP2;ratioP2;P2;SDS_P1;SDS_P2;PMS_P1;PMS_P2;Temp;Humidity;BMP_temperature;BMP_pressure;BME280_temperature;BME280_humidity;BME280_pressure;Samples;Min_cycle;Max_cycle;Signal;HPM_P1;HPM_P2
2024/04/07 00:00:43;;;;;;;43.50;38.60;;;;;;;11.02;100.00;99225.98;109544;1251;59689;-74
2024/04/07 00:03:29;;;;;;;42.10;37.70;;;;;;;11.01;100.00;99223.60;109491;1251;77881;-73
2024/04/07 00:05:56;;;;;;;41.90;37.20;;;;;;;10.98;100.00;99220.92;109569;1251;60076;-72
2024/04/07 00:08:23;;;;;;;42.50;37.90;;;;;;;10.95;100.00;99218.60;109552;1251;59948;-73
2024/04/07 00:10:49;;;;;;;43.20;38.50;;;;;;;10.93;100.00;99219.64;109537;1251;59861;-73
2024/04/07 00:13:15;;;;;;;44.90;36.80;;;;;;;10.92;100.00;99220.03;109367;1252;59922;-74
2024/04/07 00:15:42;;;;;;;41.90;37.00;;;;;;;10.96;100.00;99220.70;109485;1253;59770;-74
2024/04/07 00:18:09;;;;;;;44.90;38.70;;;;;;;10.99;100.00;99219.75;109444;1252;60202;-73
2024/04/07 00:20:36;;;;;;;41.30;36.30;;;;;;;11.05;100.00;99218.52;109433;1253;64127;-73
2024/04/07 00:23:02;;;;;;;42.80;36.80;;;;;;;11.09;100.00;99212.05;109462;1251;60091;-74
2024/04/07 00:25:29;;;;;;;41.60;37.20;;;;;;;11.10;100.00;99211.21;109450;1253;59805;-73
2024/04/07 00:27:55;;;;;;;42.00;36.20;;;;;;;11.11;100.00;99212.98;109423;1253;59861;-74
2024/04/07 00:30:21;;;;;;;38.70;34.50;;;;;;;11.09;100.00;99215.20;109453;1252;59890;-74
2024/04/07 00:32:47;;;;;;;41.00;35.10;;;;;;;11.10;100.00;99215.20;109470;1252;60291;-72
2024/04/07 00:35:14;;;;;;;39.30;34.40;;;;;;;11.10;100.00;99209.86;109429;1253;60024;-73
2024/04/07 00:37:40;;;;;;;41.30;35.60;;;;;;;11.10;100.00;99215.84;109491;1252;59847;-72
2024/04/07 00:40:07;;;;;;;38.30;34.20;;;;;;;11.10;100.00;99221.02;109464;1253;59995;-73
2024/04/07 00:42:33;;;;;;;38.10;34.00;;;;;;;11.08;100.00;99222.23;109472;1253;60122;-73
2024/04/07 00:45:00;;;;;;;39.40;34.60;;;;;;;11.06;100.00;99216.47;109475;1252;59901;-73
2024/04/07 00:47:26;;;;;;;38.40;34.10;;;;;;;11.08;100.00;99213.73;109462;1253;59706;-73
2024/04/07 00:49:53;;;;;;;38.30;34.20;;;;;;;11.06;100.00;99214.91;109459;1253;59940;-73
2024/04/07 00:52:20;;;;;;;40.60;35.90;;;;;;;11.02;100.00;99220.13;109460;1253;60044;-73
2024/04/07 00:54:46;;;;;;;40.20;34.40;;;;;;;10.98;100.00;99222.84;109463;1253;59824;-74
2024/04/07 00:57:13;;;;;;;40.20;35.90;;;;;;;10.97;100.00;99222.74;109453;1253;60143;-74
2024/04/07 00:59:40;;;;;;;38.80;34.50;;;;;;;10.96;100.00;99223.33;109453;1253;59962;-72
2024/04/07 01:02:07;;;;;;;39.00;34.70;;;;;;;10.93;100.00;99226.39;109466;1253;59873;-73
2024/04/07 01:04:33;;;;;;;37.20;33.10;;;;;;;10.89;100.00;99229.48;109470;1253;66661;-73
2024/04/07 01:06:59;;;;;;;38.00;33.90;;;;;;;10.85;100.00;99232.06;109472;1253;59849;-73
2024/04/07 01:09:26;;;;;;;39.70;35.40;;;;;;;10.81;100.00;99233.05;109434;1252;60486;-72
2024/04/07 01:11:53;;;;;;;38.10;34.00;;;;;;;10.80;100.00;99229.23;109497;1253;59775;-73
2024/04/07 01:14:20;;;;;;;39.10;35.10;;;;;;;10.78;100.00;99226.84;109537;1251;59837;-72
2024/04/07 01:16:46;;;;;;;38.70;34.40;;;;;;;10.79;100.00;99224.84;109524;1250;65667;-72
2024/04/07 01:19:12;;;;;;;38.80;34.60;;;;;;;10.81;100.00;99226.14;109549;1251;60087;-72
2024/04/07 01:21:39;;;;;;;40.00;35.70;;;;;;;10.81;100.00;99225.74;109532;1251;60134;-73
2024/04/07 01:24:05;;;;;;;44.40;35.70;;;;;;;10.82;100.00;99226.23;109516;1251;59881;-73
2024/04/07 01:26:32;;;;;;;41.20;35.90;;;;;;;10.81;100.00;99225.42;109542;1251;59909;-74
2024/04/07 01:28:58;;;;;;;39.70;35.40;;;;;;;10.79;100.00;99226.03;109520;1250;59838;-73
2024/04/07 01:31:26;;;;;;;40.20;36.10;;;;;;;10.76;100.00;99223.75;109321;1250;60675;-72
2024/04/07 01:33:53;;;;;;;42.10;37.60;;;;;;;10.74;100.00;99228.14;109559;1251;63733;-74
2024/04/07 01:36:20;;;;;;;44.60;39.80;;;;;;;10.73;100.00;99233.89;109493;1251;59799;-73
2024/04/07 01:38:46;;;;;;;42.60;38.30;;;;;;;10.71;100.00;99237.90;109569;1251;59830;-73
2024/04/07 01:41:12;;;;;;;45.00;40.20;;;;;;;10.71;100.00;99240.59;109510;1251;59813;-73
2024/04/07 01:43:39;;;;;;;45.70;40.70;;;;;;;10.71;100.00;99243.09;109553;1251;60033;-73
2024/04/07 01:46:05;;;;;;;46.60;39.60;;;;;;;10.68;100.00;99246.98;109539;1251;59902;-74
2024/04/07 01:48:31;;;;;;;44.70;38.60;;;;;;;10.66;100.00;99248.05;109469;1251;59824;-73
2024/04/07 01:50:57;;;;;;;47.20;41.50;;;;;;;10.63;100.00;99256.05;109532;1251;59885;-73
2024/04/07 01:53:24;;;;;;;44.10;39.50;;;;;;;10.60;100.00;99261.04;109513;1251;59958;-73
2024/04/07 01:55:52;;;;;;;43.70;39.20;;;;;;;10.56;100.00;99262.31;109534;1251;59741;-72
2024/04/07 01:58:20;;;;;;;43.00;38.60;;;;;;;10.53;100.00;99257.17;109493;1251;62742;-73
2024/04/07 02:00:47;;;;;;;44.40;39.70;;;;;;;10.50;100.00;99246.55;109508;1250;59846;-73
2024/04/07 02:03:13;;;;;;;47.30;41.00;;;;;;;10.49;100.00;99245.38;109568;1251;59911;-74
2024/04/07 02:05:39;;;;;;;45.70;39.70;;;;;;;10.47;100.00;99247.43;109311;1251;59849;-73
2024/04/07 02:08:06;;;;;;;41.20;36.60;;;;;;;10.44;100.00;99249.61;109533;1250;59741;-74
2024/04/07 02:10:32;;;;;;;41.10;36.90;;;;;;;10.42;100.00;99246.16;109532;1251;59816;-73
2024/04/07 02:12:58;;;;;;;38.00;34.00;;;;;;;10.42;100.00;99239.93;109510;1251;60038;-73
2024/04/07 02:15:25;;;;;;;36.70;32.90;;;;;;;10.43;100.00;99237.39;109521;1254;60133;-74
2024/04/07 02:17:51;;;;;;;37.30;33.20;;;;;;;10.44;100.00;99233.59;109547;1251;59936;-74
2024/04/07 02:20:18;;;;;;;37.80;33.60;;;;;;;10.44;100.00;99233.02;109545;1251;59959;-73
2024/04/07 02:22:44;;;;;;;36.40;32.40;;;;;;;10.48;100.00;99238.13;109543;1251;60261;-73
2024/04/07 02:25:11;;;;;;;35.40;31.80;;;;;;;10.52;100.00;99241.80;109529;1251;59769;-73
2024/04/07 02:27:38;;;;;;;35.90;32.30;;;;;;;10.50;100.00;99241.55;109547;1251;59849;-72
2024/04/07 02:30:04;;;;;;;34.50;30.90;;;;;;;10.47;100.00;99240.35;109233;1251;59869;-72
2024/04/07 02:32:32;;;;;;;32.00;28.80;;;;;;;10.42;100.00;99241.54;109570;1251;59897;-73
2024/04/07 02:34:58;;;;;;;31.60;27.90;;;;;;;10.39;100.00;99240.67;109317;1251;62580;-73
2024/04/07 02:37:24;;;;;;;30.00;26.80;;;;;;;10.36;100.00;99241.02;109503;1251;59863;-72
2024/04/07 02:39:51;;;;;;;30.50;27.40;;;;;;;10.33;100.00;99239.92;109551;1251;59812;-72
2024/04/07 02:42:17;;;;;;;30.90;26.40;;;;;;;10.35;100.00;99238.10;109534;1250;59800;-72
2024/04/07 02:50:13;;;;;;;33.30;29.70;;;;;;;10.38;100.00;99225.45;109535;1251;59778;-73
2024/04/07 02:52:40;;;;;;;33.40;29.50;;;;;;;10.40;100.00;99229.44;109534;1251;59740;-73
2024/04/07 02:55:06;;;;;;;30.70;27.60;;;;;;;10.39;100.00;99227.52;109654;1250;60202;-73
2024/04/07 02:57:33;;;;;;;32.10;28.90;;;;;;;10.35;100.00;99227.42;109642;1250;59708;-74
2024/04/07 02:59:59;;;;;;;32.40;29.10;;;;;;;10.30;100.00;99226.80;109683;1250;59838;-73
2024/04/07 03:02:26;;;;;;;29.10;26.20;;;;;;;10.25;100.00;99231.89;109639;1250;60086;-74
2024/04/07 03:04:53;;;;;;;30.70;27.40;;;;;;;10.20;100.00;99235.09;109747;1250;59838;-74
2024/04/07 03:07:22;;;;;;;31.00;27.90;;;;;;;10.16;100.00;99234.77;109664;1250;66849;-74
2024/04/07 03:09:54;;;;;;;33.80;30.10;;;;;;;10.15;100.00;99232.52;109697;1250;60093;-73
2024/04/07 03:12:20;;;;;;;33.20;29.70;;;;;;;10.15;100.00;99231.63;109648;1249;64082;-73
2024/04/07 03:14:52;;;;;;;36.00;32.20;;;;;;;10.18;100.00;99227.91;109689;1250;59812;-73
2024/04/07 03:17:19;;;;;;;36.80;33.00;;;;;;;10.21;100.00;99228.45;109671;1250;60029;-73
2024/04/07 03:19:45;;;;;;;35.90;32.30;;;;;;;10.20;100.00;99228.67;109683;1249;59866;-73
2024/04/07 03:22:12;;;;;;;36.30;32.60;;;;;;;10.19;100.00;99225.02;109413;1251;59871;-73
2024/04/07 03:24:38;;;;;;;37.60;33.00;;;;;;;10.17;100.00;99226.91;109663;1250;64093;-73
2024/04/07 03:27:05;;;;;;;36.90;33.00;;;;;;;10.16;100.00;99227.51;109626;1250;59899;-73
2024/04/07 03:29:32;;;;;;;37.40;33.40;;;;;;;10.16;100.00;99229.64;109684;1250;59931;-73
2024/04/07 03:31:58;;;;;;;37.00;33.00;;;;;;;10.15;100.00;99230.58;109691;1250;66905;-73
2024/04/07 03:34:25;;;;;;;39.80;35.70;;;;;;;10.16;100.00;99233.02;109682;1250;59776;-71
2024/04/07 03:36:51;;;;;;;37.60;33.90;;;;;;;10.16;100.00;99229.95;109658;1250;63722;-72
2024/04/07 03:39:18;;;;;;;38.80;34.20;;;;;;;10.16;100.00;99228.92;109622;1250;59821;-72
2024/04/07 03:41:44;;;;;;;40.90;36.60;;;;;;;10.16;100.00;99225.89;109691;1249;59901;-72
2024/04/07 03:44:10;;;;;;;40.70;36.40;;;;;;;10.16;100.00;99223.23;109392;1251;59873;-72
2024/04/07 03:46:37;;;;;;;39.10;34.90;;;;;;;10.16;100.00;99230.34;109704;1250;59826;-73
2024/04/07 03:49:04;;;;;;;40.80;36.70;;;;;;;10.15;100.00;99231.45;109666;1250;59991;-73
2024/04/07 03:51:31;;;;;;;39.00;34.80;;;;;;;10.15;100.00;99230.19;109603;1250;59801;-73
2024/04/07 03:53:57;;;;;;;39.30;35.00;;;;;;;10.17;100.00;99225.33;109675;1249;60109;-73
2024/04/07 03:56:23;;;;;;;39.00;35.00;;;;;;;10.17;100.00;99227.44;109697;1249;59862;-73
2024/04/07 03:58:50;;;;;;;38.00;34.00;;;;;;;10.16;100.00;99225.70;109667;1250;59802;-72
2024/04/07 04:01:17;;;;;;;39.00;34.70;;;;;;;10.16;100.00;99227.65;109626;1250;62836;-74
2024/04/07 04:03:43;;;;;;;38.80;34.70;;;;;;;10.17;100.00;99231.34;109655;1250;59838;-73
2024/04/07 04:06:10;;;;;;;36.00;32.30;;;;;;;10.19;100.00;99234.79;109645;1250;59778;-73
2024/04/07 04:08:36;;;;;;;34.30;30.80;;;;;;;10.19;100.00;99232.63;109652;1250;66658;-73
2024/04/07 04:11:05;;;;;;;36.40;32.60;;;;;;;10.19;100.00;99232.45;109698;1250;60040;-73
2024/04/07 04:13:31;;;;;;;35.40;31.70;;;;;;;10.20;100.00;99235.59;109549;1250;62851;-73
2024/04/07 04:15:59;;;;;;;33.20;29.90;;;;;;;10.20;100.00;99243.02;109643;1250;59927;-74
2024/04/07 04:18:26;;;;;;;33.20;29.80;;;;;;;10.22;100.00;99240.45;109682;1250;59823;-73
2024/04/07 04:20:52;;;;;;;32.40;29.00;;;;;;;10.23;100.00;99239.11;109643;1250;59877;-72
2024/04/07 04:23:18;;;;;;;33.10;29.20;;;;;;;10.25;100.00;99241.14;109649;1250;59793;-73
2024/04/07 04:25:52;;;;;;;32.80;29.50;;;;;;;10.35;100.00;99243.55;109654;1250;59964;-74
2024/04/07 04:28:20;;;;;;;31.00;27.90;;;;;;;10.73;100.00;99246.50;109625;1250;59768;-73
2024/04/07 04:30:58;;;;;;;30.30;27.30;;;;;;;11.01;100.00;99244.16;109645;1249;59750;-73
2024/04/07 04:33:27;;;;;;;28.30;25.50;;;;;;;11.15;100.00;99247.86;109652;1250;65494;-73
2024/04/07 04:35:54;;;;;;;29.00;26.00;;;;;;;11.30;100.00;99247.94;109688;1249;60152;-73
2024/04/07 04:38:22;;;;;;;28.70;25.80;;;;;;;11.56;100.00;99242.90;109628;1250;62699;-74
2024/04/07 04:40:55;;;;;;;26.10;23.40;;;;;;;11.86;100.00;99240.31;109637;1250;59833;-73
2024/04/07 04:43:22;;;;;;;24.80;22.40;;;;;;;12.16;100.00;99241.36;109650;1250;59786;-73
2024/04/07 04:46:00;;;;;;;24.70;21.70;;;;;;;12.37;100.00;99237.02;109660;1250;66837;-74
2024/04/07 04:48:27;;;;;;;22.90;20.60;;;;;;;12.58;100.00;99235.69;109675;1250;60100;-74
2024/04/07 04:50:56;;;;;;;20.60;18.50;;;;;;;12.74;100.00;99230.81;109682;1250;59905;-74
2024/04/07 04:53:22;;;;;;;22.60;20.50;;;;;;;12.81;100.00;99230.28;109337;1250;59780;-73
2024/04/07 04:55:49;;;;;;;21.80;19.60;;;;;;;12.82;100.00;99230.23;109626;1250;59830;-73
2024/04/07 04:58:15;;;;;;;22.40;20.00;;;;;;;12.88;100.00;99230.67;109670;1250;59945;-74
2024/04/07 05:00:41;;;;;;;23.10;20.90;;;;;;;12.92;100.00;99230.19;109663;1250;59901;-74
2024/04/07 05:03:07;;;;;;;23.00;20.70;;;;;;;12.92;100.00;99231.42;109635;1250;59809;-74
2024/04/07 05:05:34;;;;;;;24.00;21.20;;;;;;;12.90;100.00;99229.41;109646;1250;59880;-74
2024/04/07 05:08:00;;;;;;;24.30;21.70;;;;;;;12.89;100.00;99229.86;109486;1250;59815;-74
2024/04/07 05:10:27;;;;;;;21.60;19.60;;;;;;;12.89;100.00;99233.46;109638;1250;59973;-73
2024/04/07 05:12:53;;;;;;;21.20;19.10;;;;;;;12.89;100.00;99233.13;109653;1250;60428;-72
2024/04/07 05:15:19;;;;;;;20.90;18.80;;;;;;;12.90;100.00;99235.86;109647;1250;59868;-73
2024/04/07 05:17:46;;;;;;;19.70;17.40;;;;;;;12.99;100.00;99236.17;109687;1250;59839;-72
2024/04/07 05:20:15;;;;;;;20.20;18.20;;;;;;;13.08;100.00;99235.99;109681;1249;59734;-75
2024/04/07 05:22:42;;;;;;;20.40;18.30;;;;;;;13.16;100.00;99238.77;109745;1250;66835;-73
2024/04/07 05:25:09;;;;;;;20.60;18.40;;;;;;;13.27;100.00;99240.86;109661;1250;60196;-74
2024/04/07 05:27:36;;;;;;;21.20;18.80;;;;;;;13.39;100.00;99246.60;109673;1250;63852;-73
2024/04/07 05:30:06;;;;;;;21.30;19.10;;;;;;;13.49;100.00;99245.46;109656;1250;60084;-74
2024/04/07 05:32:32;;;;;;;;;;;;;;;13.57;100.00;99243.30;109681;1250;59971;-74
2024/04/07 05:34:59;;;;;;;19.90;18.00;;;;;;;13.63;100.00;99239.06;109679;1250;66538;-73
2024/04/07 05:37:26;;;;;;;18.30;16.40;;;;;;;13.74;100.00;99241.61;109638;1250;60739;-74
2024/04/07 05:39:53;;;;;;;19.40;17.50;;;;;;;13.87;100.00;99249.06;109674;1249;62714;-74
2024/04/07 05:42:19;;;;;;;19.20;17.20;;;;;;;14.03;100.00;99252.84;109652;1250;60084;-74
2024/04/07 05:44:46;;;;;;;18.60;16.70;;;;;;;14.22;100.00;99251.84;109683;1250;59693;-74
2024/04/07 05:47:14;;;;;;;20.60;18.10;;;;;;;14.40;100.00;99252.11;109716;1250;60205;-73
2024/04/07 05:49:41;;;;;;;19.10;17.20;;;;;;;14.58;100.00;99253.72;109724;1250;60181;-74
2024/04/07 05:52:08;;;;;;;18.90;15.90;;;;;;;14.80;100.00;99254.65;109645;1250;63852;-74
2024/04/07 05:54:34;;;;;;;17.90;15.90;;;;;;;15.02;100.00;99251.42;109678;1249;60081;-74
2024/04/07 05:57:00;;;;;;;18.50;16.70;;;;;;;15.25;100.00;99249.73;109703;1249;60004;-73
2024/04/07 05:59:27;;;;;;;18.20;16.40;;;;;;;15.33;100.00;99247.50;109692;1249;59813;-73
2024/04/07 06:01:53;;;;;;;17.70;15.70;;;;;;;15.37;100.00;99248.56;109682;1250;59876;-74
2024/04/07 06:04:20;;;;;;;18.10;16.30;;;;;;;15.39;100.00;99249.85;109681;1250;59842;-73
2024/04/07 06:06:47;;;;;;;19.20;17.40;;;;;;;15.46;100.00;99246.41;109387;1250;59873;-74
2024/04/07 06:09:14;;;;;;;20.00;16.80;;;;;;;15.67;100.00;99245.57;109659;1250;59710;-73
2024/04/07 06:11:41;;;;;;;17.80;15.90;;;;;;;15.92;100.00;99242.57;109549;1250;66853;-74
2024/04/07 06:14:07;;;;;;;18.30;16.40;;;;;;;16.13;100.00;99246.88;109701;1250;59856;-73
2024/04/07 06:16:34;;;;;;;18.30;16.40;;;;;;;16.31;100.00;99245.14;109647;1250;60153;-73
2024/04/07 06:19:00;;;;;;;18.50;16.40;;;;;;;16.48;100.00;99249.20;109666;1249;60072;-72
2024/04/07 06:21:27;;;;;;;19.70;16.70;;;;;;;16.65;100.00;99248.42;109694;1251;59810;-72
2024/04/07 06:23:53;;;;;;;21.30;18.90;;;;;;;16.83;100.00;99249.20;109726;1249;59819;-72
2024/04/07 06:26:19;;;;;;;20.30;18.40;;;;;;;17.01;100.00;99250.87;109338;1251;59933;-73
2024/04/07 06:28:46;;;;;;;24.70;22.30;;;;;;;17.14;100.00;99248.83;109679;1249;59979;-72
2024/04/07 06:31:12;;;;;;;26.10;23.80;;;;;;;17.26;100.00;99251.27;109639;1250;59809;-74
2024/04/07 06:33:38;;;;;;;31.30;28.40;;;;;;;17.32;100.00;99248.90;109415;1249;59954;-73
2024/04/07 06:36:05;;;;;;;17.30;15.40;;;;;;;17.39;100.00;99241.82;109731;1250;59853;-74
2024/04/07 06:38:32;;;;;;;16.70;15.10;;;;;;;17.32;100.00;99244.59;109691;1250;60086;-74
2024/04/07 06:41:00;;;;;;;18.00;16.10;;;;;;;17.07;100.00;99246.16;109683;1250;60164;-73
2024/04/07 06:43:26;;;;;;;15.90;14.40;;;;;;;16.80;100.00;99248.61;109668;1250;59813;-74
2024/04/07 06:45:54;;;;;;;16.50;14.80;;;;;;;16.58;100.00;99252.30;109706;1250;59797;-73
2024/04/07 06:48:20;;;;;;;16.50;14.80;;;;;;;16.45;100.00;99257.05;109633;1250;65406;-74
2024/04/07 06:50:47;;;;;;;19.60;17.50;;;;;;;16.40;100.00;99256.52;109698;1249;59786;-74
2024/04/07 06:53:13;;;;;;;33.70;28.30;;;;;;;16.46;100.00;99257.68;109686;1250;59923;-74
2024/04/07 06:55:39;;;;;;;16.10;14.50;;;;;;;16.53;100.00;99264.21;109313;1256;59933;-74
2024/04/07 06:58:06;;;;;;;17.70;15.90;;;;;;;16.57;100.00;99266.17;109727;1250;59831;-74
2024/04/07 07:00:32;;;;;;;16.20;13.70;;;;;;;16.63;100.00;99268.53;109650;1250;60075;-71
2024/04/07 07:02:59;;;;;;;15.30;13.70;;;;;;;16.64;100.00;99267.39;109703;1250;60209;-72
2024/04/07 07:05:25;;;;;;;21.30;19.20;;;;;;;16.68;100.00;99271.46;109667;1249;60054;-73
2024/04/07 07:07:51;;;;;;;15.80;14.00;;;;;;;16.79;100.00;99270.52;109656;1250;59790;-73
2024/04/07 07:10:18;;;;;;;15.60;14.00;;;;;;;16.90;100.00;99276.58;109670;1251;59852;-73
2024/04/07 07:12:44;;;;;;;14.00;12.50;;;;;;;16.96;100.00;99279.71;109684;1249;59841;-72
2024/04/07 07:15:11;;;;;;;13.80;12.30;;;;;;;17.04;100.00;99281.23;109656;1251;60104;-73
2024/04/07 07:17:37;;;;;;;14.30;12.70;;;;;;;17.13;100.00;99281.92;109650;1249;59892;-73
2024/04/07 07:20:04;;;;;;;14.00;12.50;;;;;;;17.25;100.00;99282.77;109709;1250;59724;-72
2024/04/07 07:22:30;;;;;;;14.20;11.50;;;;;;;17.43;100.00;99281.40;109365;1249;60196;-74
2024/04/07 07:24:57;;;;;;;13.70;11.50;;;;;;;17.63;100.00;99281.92;109642;1251;59736;-74
2024/04/07 07:27:23;;;;;;;11.60;10.40;;;;;;;17.77;100.00;99283.66;109690;1250;59824;-74
2024/04/07 07:29:49;;;;;;;11.70;10.50;;;;;;;17.89;100.00;99287.98;109668;1250;60245;-74
2024/04/07 07:32:17;;;;;;;13.30;12.00;;;;;;;17.97;100.00;99286.65;109517;1250;59801;-73
2024/04/07 07:34:43;;;;;;;14.10;12.60;;;;;;;18.10;100.00;99280.40;109672;1250;59873;-72
2024/04/07 07:37:10;;;;;;;13.30;11.80;;;;;;;18.18;100.00;99279.14;109668;1251;59835;-73
2024/04/07 07:39:36;;;;;;;11.80;10.70;;;;;;;18.26;100.00;99278.36;109679;1250;60211;-72
2024/04/07 07:42:03;;;;;;;13.60;12.40;;;;;;;18.38;100.00;99277.02;109685;1250;61275;-74
2024/04/07 07:44:29;;;;;;;13.60;10.40;;;;;;;18.53;100.00;99276.05;109498;1250;59746;-74
2024/04/07 07:46:56;;;;;;;13.50;11.00;;;;;;;18.63;100.00;99277.55;109676;1250;59860;-73
2024/04/07 07:49:22;;;;;;;10.70;9.30;;;;;;;18.71;100.00;99279.14;109656;1250;59868;-71
2024/04/07 07:51:48;;;;;;;11.20;9.60;;;;;;;18.79;100.00;99282.75;109674;1250;59855;-74
2024/04/07 07:54:15;;;;;;;11.00;9.50;;;;;;;18.89;100.00;99277.23;109615;1250;59895;-72
2024/04/07 07:56:41;;;;;;;10.50;9.50;;;;;;;18.95;100.00;99278.70;109673;1250;60109;-74
2024/04/07 07:59:07;;;;;;;11.50;9.90;;;;;;;18.97;100.00;99278.61;109700;1250;60719;-72
2024/04/07 08:01:34;;;;;;;11.60;9.40;;;;;;;19.03;100.00;99278.93;109686;1250;59859;-76
2024/04/07 08:04:00;;;;;;;10.60;9.50;;;;;;;19.14;100.00;99279.14;109679;1250;59935;-73
2024/04/07 08:06:28;;;;;;;10.60;9.60;;;;;;;19.21;100.00;99275.75;109383;1250;59914;-72
2024/04/07 08:08:54;;;;;;;9.80;8.50;;;;;;;19.30;100.00;99273.94;109657;1250;59968;-73
2024/04/07 08:11:21;;;;;;;11.00;9.90;;;;;;;19.42;100.00;99272.08;109658;1252;60102;-73
2024/04/07 08:13:47;;;;;;;8.30;7.50;;;;;;;19.57;100.00;99265.01;109744;1250;59783;-74
2024/04/07 08:16:13;;;;;;;11.80;8.60;;;;;;;19.65;100.00;99263.31;109650;1251;59812;-74
2024/04/07 08:18:41;;;;;;;8.80;7.90;;;;;;;19.70;100.00;99260.07;109671;1250;59999;-75
2024/04/07 08:21:07;;;;;;;10.50;8.20;;;;;;;19.81;100.00;99264.08;109649;1251;59859;-74
2024/04/07 08:23:33;;;;;;;8.00;7.30;;;;;;;19.92;100.00;99270.64;109419;1250;59853;-73
2024/04/07 08:26:00;;;;;;;9.40;7.60;;;;;;;20.04;100.00;99267.95;109556;1250;144104;-73
2024/04/07 08:28:26;;;;;;;8.70;7.80;;;;;;;20.22;100.00;99267.09;109696;1250;59946;-73
2024/04/07 08:30:53;;;;;;;8.20;7.40;;;;;;;20.33;100.00;99265.73;109651;1249;59805;-73
2024/04/07 08:33:19;;;;;;;9.30;7.00;;;;;;;20.43;100.00;99270.53;109664;1251;59802;-74
2024/04/07 08:35:46;;;;;;;10.70;7.30;;;;;;;20.55;100.00;99270.02;109481;1256;59999;-74
2024/04/07 08:38:12;;;;;;;7.60;6.80;;;;;;;20.73;100.00;99270.27;109662;1250;59836;-74
2024/04/07 08:40:41;;;;;;;7.60;6.90;;;;;;;20.87;100.00;99266.98;109619;1250;59737;-74
2024/04/07 08:43:09;;;;;;;7.40;6.30;;;;;;;20.98;100.00;99267.46;109653;1251;63881;-74
2024/04/07 08:45:36;;;;;;;7.10;6.10;;;;;;;21.08;100.00;99269.71;109379;1250;59846;-73
2024/04/07 08:48:04;;;;;;;6.80;5.80;;;;;;;21.21;100.00;99265.80;109681;1251;60002;-74
2024/04/07 08:50:31;;;;;;;6.50;5.80;;;;;;;21.32;100.00;99264.38;109677;1251;65671;-74
2024/04/07 08:52:57;;;;;;;8.20;5.80;;;;;;;21.40;100.00;99261.55;109711;1250;59702;-75
2024/04/07 08:55:24;;;;;;;6.60;6.00;;;;;;;21.46;100.00;99257.71;109659;1249;64235;-73
2024/04/07 08:57:52;;;;;;;6.80;5.70;;;;;;;21.58;100.00;99257.86;109645;1249;59786;-72
2024/04/07 09:00:20;;;;;;;7.10;6.30;;;;;;;21.72;100.00;99256.73;109674;1250;59844;-73
2024/04/07 09:02:48;;;;;;;6.60;5.40;;;;;;;21.88;100.00;99256.77;109673;1250;66922;-74
2024/04/07 09:05:15;;;;;;;7.30;6.40;;;;;;;22.03;100.00;99253.28;109661;1250;61370;-74
2024/04/07 09:07:41;;;;;;;7.30;5.80;;;;;;;22.12;100.00;99250.08;109680;1250;65028;-74
2024/04/07 09:10:08;;;;;;;5.90;5.40;;;;;;;22.22;100.00;99251.94;109629;1250;60030;-72
2024/04/07 09:12:35;;;;;;;5.90;5.30;;;;;;;22.34;100.00;99252.76;109676;1249;60172;-73
2024/04/07 09:15:01;;;;;;;5.80;5.20;;;;;;;22.44;100.00;99254.19;109684;1250;65865;-74
2024/04/07 09:17:29;;;;;;;7.50;5.90;;;;;;;22.56;100.00;99252.58;109645;1250;59837;-73
2024/04/07 09:19:56;;;;;;;5.70;5.20;;;;;;;22.77;100.00;99244.80;109536;1251;64047;-73
2024/04/07 09:22:23;;;;;;;6.50;4.90;;;;;;;22.99;100.00;99239.23;109641;1251;59825;-73
2024/04/07 09:24:58;;;;;;;5.50;5.00;;;;;;;23.21;100.00;99239.17;109676;1250;60148;-76
2024/04/07 09:27:24;;;;;;;5.10;4.50;;;;;;;23.41;100.00;99236.69;109659;1252;66959;-73
2024/04/07 09:29:52;;;;;;;7.40;4.50;;;;;;;23.58;100.00;99231.83;109704;1250;60945;-74
2024/04/07 09:32:18;;;;;;;4.70;3.90;;;;;;;23.70;100.00;99228.42;109640;1250;64443;-73
2024/04/07 09:34:49;;;;;;;4.60;4.10;;;;;;;23.74;100.00;99226.30;109621;1250;59803;-74
2024/04/07 09:37:16;;;;;;;5.40;3.70;;;;;;;23.77;100.00;99224.95;109649;1250;59853;-72
2024/04/07 09:39:43;;;;;;;5.00;3.80;;;;;;;23.86;100.00;99223.52;109653;1251;65847;-73
2024/04/07 09:42:12;;;;;;;6.00;4.40;;;;;;;24.03;100.00;99220.34;109684;1250;59900;-73
2024/04/07 09:44:43;;;;;;;5.80;4.60;;;;;;;24.19;100.00;99219.73;109384;1250;62503;-72
2024/04/07 09:47:13;;;;;;;4.70;4.30;;;;;;;24.21;100.00;99215.52;109667;1249;59732;-74
2024/04/07 09:49:40;;;;;;;4.80;4.40;;;;;;;24.22;100.00;99208.22;109560;1251;59752;-73
2024/04/07 09:52:08;;;;;;;4.60;4.10;;;;;;;24.33;100.00;99206.45;109686;1250;66621;-73
2024/04/07 09:54:46;;;;;;;5.40;4.20;;;;;;;24.42;100.00;99201.88;109659;1251;60120;-73
2024/04/07 09:57:13;;;;;;;6.00;4.40;;;;;;;24.38;100.00;99202.13;109549;1251;63828;-73
2024/04/07 09:59:42;;;;;;;4.70;4.20;;;;;;;24.27;100.00;99200.53;109664;1250;59731;-73
2024/04/07 10:02:10;;;;;;;5.80;3.90;;;;;;;24.18;100.00;99199.14;109568;1250;59847;-72
2024/04/07 10:04:41;;;;;;;4.80;4.40;;;;;;;24.19;100.00;99195.63;109710;1250;65438;-74
2024/04/07 10:07:11;;;;;;;3.80;3.40;;;;;;;24.22;100.00;99196.98;109658;1251;60135;-73
2024/04/07 10:09:38;;;;;;;3.30;2.60;;;;;;;24.25;100.00;99195.77;109308;1250;63762;-73
2024/04/07 10:12:05;;;;;;;4.60;3.80;;;;;;;24.39;100.00;99194.42;109609;1250;59772;-74
2024/04/07 10:14:40;;;;;;;3.90;3.50;;;;;;;24.53;100.00;99191.85;109348;1250;59809;-73
2024/04/07 10:17:09;;;;;;;4.40;4.00;;;;;;;24.66;100.00;99185.16;109691;1251;65321;-74
2024/04/07 10:19:43;;;;;;;4.30;3.40;;;;;;;24.79;100.00;99181.85;109661;1251;60277;-74
2024/04/07 10:22:11;;;;;;;4.00;3.20;;;;;;;24.88;100.00;99179.66;109678;1250;64141;-74
2024/04/07 10:24:38;;;;;;;3.90;3.60;;;;;;;25.01;100.00;99177.14;109658;1250;59794;-73
2024/04/07 10:27:10;;;;;;;3.60;3.20;;;;;;;25.04;100.00;99175.84;109660;1250;59760;-73
2024/04/07 10:29:39;;;;;;;3.30;3.00;;;;;;;25.11;100.00;99174.48;109674;1250;68065;-73
2024/04/07 10:32:25;;;;;;;3.90;3.40;;;;;;;25.27;100.00;99176.63;109661;1250;60195;-73
2024/04/07 10:34:58;;;;;;;3.80;3.40;;;;;;;25.38;100.00;99174.02;109674;1251;64878;-73
2024/04/07 10:37:25;;;;;;;3.40;2.90;;;;;;;25.45;100.00;99175.69;109675;1251;59771;-72
2024/04/07 10:39:54;;;;;;;3.30;2.90;;;;;;;25.47;100.00;99173.40;109642;1251;61459;-73
2024/04/07 10:42:21;;;;;;;3.00;2.70;;;;;;;25.49;100.00;99172.41;109329;1251;66899;-73
2024/04/07 10:44:47;;;;;;;2.80;2.60;;;;;;;25.52;100.00;99173.28;109670;1251;60025;-73
2024/04/07 10:47:14;;;;;;;2.70;2.50;;;;;;;25.56;100.00;99174.03;109644;1250;60040;-72
2024/04/07 10:49:40;;;;;;;3.10;2.80;;;;;;;25.64;100.00;99174.23;109607;1251;60037;-74
2024/04/07 10:52:14;;;;;;;2.90;2.60;;;;;;;25.72;100.00;99173.55;109650;1251;59740;-74
2024/04/07 10:54:40;;;;;;;4.00;3.40;;;;;;;25.84;100.00;99170.56;109660;1250;68085;-73
2024/04/07 10:57:10;;;;;;;3.00;2.70;;;;;;;25.88;100.00;99172.64;109681;1249;60016;-72
2024/04/07 10:59:37;;;;;;;3.30;2.90;;;;;;;25.90;100.00;99171.84;109647;1251;63266;-73
2024/04/07 11:02:05;;;;;;;3.50;3.20;;;;;;;26.01;100.00;99169.11;109652;1251;59795;-73
2024/04/07 11:04:32;;;;;;;2.90;2.60;;;;;;;25.97;100.00;99169.48;109641;1251;59784;-73
2024/04/07 11:07:00;;;;;;;3.40;3.00;;;;;;;26.00;100.00;99167.82;109350;1250;66837;-73
2024/04/07 11:09:27;;;;;;;4.00;2.90;;;;;;;26.09;100.00;99166.03;109658;1251;59972;-73
2024/04/07 11:11:54;;;;;;;4.30;2.80;;;;;;;26.20;100.00;99170.02;109629;1251;63480;-74